sensor_id;sensor_type;location;lat;lon;timestamp;pressure;altitude;pressure_sealevel;temperature;humidity
7832;BME280;3961;42.058;25.586;2023-03-13T00:01:01;63114.44;;;8.04;61.84
7832;BME280;3961;42.058;25.586;2023-03-13T00:03:27;63122.28;;;8.08;61.76
7832;BME280;3961;42.058;25.586;2023-03-13T00:05:57;63128.00;;;8.14;61.68
7832;BME280;3961;42.058;25.586;2023-03-13T00:08:23;63122.03;;;8.06;61.83
7832;BME280;3961;42.058;25.586;2023-03-13T00:10:49;63141.84;;;8.26;61.66
7832;BME280;3961;42.058;25.586;2023-03-13T00:13:16;63140.69;;;8.25;61.02
7832;BME280;3961;42.058;25.586;2023-03-13T00:15:42;63154.31;;;8.34;61.23
7832;BME280;3961;42.058;25.586;2023-03-13T00:18:07;63100.72;;;7.87;63.09
7832;BME280;3961;42.058;25.586;2023-03-13T00:20:32;63104.16;;;7.90;62.99
7832;BME280;3961;42.058;25.586;2023-03-13T00:22:58;63097.84;;;7.85;63.10
7832;BME280;3961;42.058;25.586;2023-03-13T00:25:23;63102.88;;;7.82;63.24
7832;BME280;3961;42.058;25.586;2023-03-13T00:27:49;63088.88;;;7.79;64.08
7832;BME280;3961;42.058;25.586;2023-03-13T00:30:14;63047.44;;;7.43;64.13
7832;BME280;3961;42.058;25.586;2023-03-13T00:32:44;63084.94;;;7.71;64.70
7832;BME280;3961;42.058;25.586;2023-03-13T00:35:13;63105.91;;;7.92;63.64
7832;BME280;3961;42.058;25.586;2023-03-13T00:37:39;63106.47;;;7.92;62.93
7832;BME280;3961;42.058;25.586;2023-03-13T00:40:06;63092.44;;;7.78;64.50
7832;BME280;3961;42.058;25.586;2023-03-13T00:42:32;63079.09;;;7.70;63.77
7832;BME280;3961;42.058;25.586;2023-03-13T00:44:58;63092.56;;;7.85;63.47
7832;BME280;3961;42.058;25.586;2023-03-13T00:47:23;63112.25;;;7.97;62.94
7832;BME280;3961;42.058;25.586;2023-03-13T00:49:49;63123.19;;;8.07;62.50
7832;BME280;3961;42.058;25.586;2023-03-13T00:52:15;63131.81;;;8.15;61.95
7832;BME280;3961;42.058;25.586;2023-03-13T00:54:40;63080.81;;;7.72;62.37
7832;BME280;3961;42.058;25.586;2023-03-13T00:57:06;63116.84;;;8.01;62.01
7832;BME280;3961;42.058;25.586;2023-03-13T00:59:31;63094.94;;;7.82;63.52
7832;BME280;3961;42.058;25.586;2023-03-13T01:01:57;63106.13;;;7.94;63.26
7832;BME280;3961;42.058;25.586;2023-03-13T01:04:23;63107.06;;;7.93;63.63
7832;BME280;3961;42.058;25.586;2023-03-13T01:06:48;63109.69;;;7.93;63.22
7832;BME280;3961;42.058;25.586;2023-03-13T01:09:15;63113.38;;;7.98;62.45
7832;BME280;3961;42.058;25.586;2023-03-13T01:11:42;63089.78;;;7.78;63.65
7832;BME280;3961;42.058;25.586;2023-03-13T01:14:11;63107.63;;;7.93;63.15
7832;BME280;3961;42.058;25.586;2023-03-13T01:16:37;63086.34;;;7.74;64.16
7832;BME280;3961;42.058;25.586;2023-03-13T01:19:08;63079.09;;;7.70;63.52
7832;BME280;3961;42.058;25.586;2023-03-13T01:21:34;63069.28;;;7.62;63.78
7832;BME280;3961;42.058;25.586;2023-03-13T01:23:59;63059.84;;;7.51;65.08
7832;BME280;3961;42.058;25.586;2023-03-13T01:26:26;63055.47;;;7.50;64.94
7832;BME280;3961;42.058;25.586;2023-03-13T01:28:51;63048.69;;;7.39;65.39
7832;BME280;3961;42.058;25.586;2023-03-13T01:31:26;63084.59;;;7.73;63.58
7832;BME280;3961;42.058;25.586;2023-03-13T01:33:57;63099.00;;;7.86;63.28
7832;BME280;3961;42.058;25.586;2023-03-13T01:36:24;63096.59;;;7.88;62.41
7832;BME280;3961;42.058;25.586;2023-03-13T01:38:51;63055.81;;;7.48;64.51
7832;BME280;3961;42.058;25.586;2023-03-13T01:41:18;63073.00;;;7.67;63.45
7832;BME280;3961;42.058;25.586;2023-03-13T01:43:44;63083.47;;;7.72;63.79
7832;BME280;3961;42.058;25.586;2023-03-13T01:46:18;63086.91;;;7.75;63.92
7832;BME280;3961;42.058;25.586;2023-03-13T01:51:23;63075.28;;;7.69;64.30
7832;BME280;3961;42.058;25.586;2023-03-13T01:53:56;63084.28;;;7.75;64.18
7832;BME280;3961;42.058;25.586;2023-03-13T01:56:29;63084.03;;;7.72;64.06
7832;BME280;3961;42.058;25.586;2023-03-13T01:58:57;63048.94;;;7.41;65.29
7832;BME280;3961;42.058;25.586;2023-03-13T02:01:23;63058.94;;;7.53;64.66
7832;BME280;3961;42.058;25.586;2023-03-13T02:03:50;63072.50;;;7.62;64.49
7832;BME280;3961;42.058;25.586;2023-03-13T02:06:16;63067.31;;;7.58;64.19
7832;BME280;3961;42.058;25.586;2023-03-13T02:08:50;63061.34;;;7.50;65.84
7832;BME280;3961;42.058;25.586;2023-03-13T02:11:26;63067.09;;;7.55;65.13
7832;BME280;3961;42.058;25.586;2023-03-13T02:13:53;63052.03;;;7.47;64.55
7832;BME280;3961;42.058;25.586;2023-03-13T02:16:20;63063.31;;;7.54;63.71
7832;BME280;3961;42.058;25.586;2023-03-13T02:18:47;63045.72;;;7.41;66.26
7832;BME280;3961;42.058;25.586;2023-03-13T02:21:26;63053.53;;;7.46;64.48
7832;BME280;3961;42.058;25.586;2023-03-13T02:26:25;63055.81;;;7.48;64.61
7832;BME280;3961;42.058;25.586;2023-03-13T02:28:50;63059.84;;;7.51;63.47
7832;BME280;3961;42.058;25.586;2023-03-13T02:31:16;63051.13;;;7.48;63.39
7832;BME280;3961;42.058;25.586;2023-03-13T02:33:42;63048.94;;;7.41;64.94
7832;BME280;3961;42.058;25.586;2023-03-13T02:36:10;63053.19;;;7.48;63.84
7832;BME280;3961;42.058;25.586;2023-03-13T02:38:46;63062.16;;;7.53;63.67
7832;BME280;3961;42.058;25.586;2023-03-13T02:41:15;63058.13;;;7.50;63.12
7832;BME280;3961;42.058;25.586;2023-03-13T02:43:41;63069.06;;;7.59;61.55
7832;BME280;3961;42.058;25.586;2023-03-13T02:46:13;63026.13;;;7.24;60.27
7832;BME280;3961;42.058;25.586;2023-03-13T02:48:47;63061.56;;;7.53;60.63
7832;BME280;3961;42.058;25.586;2023-03-13T02:53:45;62993.94;;;6.95;60.80
7832;BME280;3961;42.058;25.586;2023-03-13T02:56:14;63026.13;;;7.24;60.55
7832;BME280;3961;42.058;25.586;2023-03-13T02:58:40;63015.91;;;7.10;61.10
7832;BME280;3961;42.058;25.586;2023-03-13T03:01:07;62981.84;;;6.85;61.08
7832;BME280;3961;42.058;25.586;2023-03-13T03:03:34;62983.00;;;6.86;62.15
7832;BME280;3961;42.058;25.586;2023-03-13T03:06:04;63003.72;;;7.04;61.04
7832;BME280;3961;42.058;25.586;2023-03-13T03:08:30;63007.50;;;7.05;62.43
7832;BME280;3961;42.058;25.586;2023-03-13T03:10:55;62992.22;;;6.94;64.41
7832;BME280;3961;42.058;25.586;2023-03-13T03:13:21;62998.63;;;6.95;67.09
7832;BME280;3961;42.058;25.586;2023-03-13T03:15:46;62992.53;;;6.92;67.62
7832;BME280;3961;42.058;25.586;2023-03-13T03:18:12;62992.22;;;6.94;67.99
7832;BME280;3961;42.058;25.586;2023-03-13T03:20:37;63023.34;;;7.17;67.35
7832;BME280;3961;42.058;25.586;2023-03-13T03:23:03;63006.09;;;7.01;67.27
7832;BME280;3961;42.058;25.586;2023-03-13T03:25:28;63014.28;;;7.16;67.62
7832;BME280;3961;42.058;25.586;2023-03-13T03:27:54;63006.59;;;7.06;66.34
7832;BME280;3961;42.058;25.586;2023-03-13T03:30:19;63023.25;;;7.21;65.62
7832;BME280;3961;42.058;25.586;2023-03-13T03:32:45;63015.22;;;7.14;65.65
7832;BME280;3961;42.058;25.586;2023-03-13T03:35:10;63015.22;;;7.14;65.50
7832;BME280;3961;42.058;25.586;2023-03-13T03:37:36;63022.78;;;7.16;65.69
7832;BME280;3961;42.058;25.586;2023-03-13T03:40:02;63040.28;;;7.34;64.34
7832;BME280;3961;42.058;25.586;2023-03-13T03:42:30;63007.16;;;7.07;65.58
7832;BME280;3961;42.058;25.586;2023-03-13T03:44:55;62983.56;;;6.86;64.42
7832;BME280;3961;42.058;25.586;2023-03-13T03:47:21;62968.41;;;6.70;65.97
7832;BME280;3961;42.058;25.586;2023-03-13T03:49:46;62976.34;;;6.82;65.78
7832;BME280;3961;42.058;25.586;2023-03-13T03:52:11;62988.19;;;6.90;65.67
7832;BME280;3961;42.058;25.586;2023-03-13T03:54:37;62971.84;;;6.73;66.43
7832;BME280;3961;42.058;25.586;2023-03-13T03:57:03;62964.59;;;6.69;66.18
7832;BME280;3961;42.058;25.586;2023-03-13T03:59:28;62943.69;;;6.49;67.92
7832;BME280;3961;42.058;25.586;2023-03-13T04:01:54;62929.88;;;6.36;69.35
7832;BME280;3961;42.058;25.586;2023-03-13T04:04:19;62927.00;;;6.34;69.25
7832;BME280;3961;42.058;25.586;2023-03-13T04:06:45;62943.09;;;6.48;70.13
7832;BME280;3961;42.058;25.586;2023-03-13T04:09:10;62928.41;;;6.37;71.35
7832;BME280;3961;42.058;25.586;2023-03-13T04:11:36;62916.56;;;6.29;72.42
7832;BME280;3961;42.058;25.586;2023-03-13T04:14:01;62941.03;;;6.49;71.35
7832;BME280;3961;42.058;25.586;2023-03-13T04:16:27;62940.47;;;6.48;70.76
7832;BME280;3961;42.058;25.586;2023-03-13T04:18:52;62922.97;;;6.30;72.37
7832;BME280;3961;42.058;25.586;2023-03-13T04:21:18;62927.81;;;6.37;72.51
7832;BME280;3961;42.058;25.586;2023-03-13T04:23:43;62931.59;;;6.38;73.77
7832;BME280;3961;42.058;25.586;2023-03-13T04:26:09;62921.50;;;6.31;74.54
7832;BME280;3961;42.058;25.586;2023-03-13T04:28:34;62896.22;;;6.09;75.94
7832;BME280;3961;42.058;25.586;2023-03-13T04:31:00;62900.34;;;6.08;76.57
7832;BME280;3961;42.058;25.586;2023-03-13T04:33:25;62905.75;;;6.15;76.78
7832;BME280;3961;42.058;25.586;2023-03-13T04:35:51;62895.66;;;6.09;75.91
7832;BME280;3961;42.058;25.586;2023-03-13T04:38:16;62903.69;;;6.16;75.50
7832;BME280;3961;42.058;25.586;2023-03-13T04:40:42;62850.50;;;5.71;76.06
7832;BME280;3961;42.058;25.586;2023-03-13T04:43:08;62904.03;;;6.14;76.82
7832;BME280;3961;42.058;25.586;2023-03-13T04:45:33;62893.34;;;6.06;77.36
7832;BME280;3961;42.058;25.586;2023-03-13T04:47:59;62890.81;;;6.02;76.85
7832;BME280;3961;42.058;25.586;2023-03-13T04:50:24;62899.09;;;6.12;76.66
7832;BME280;3961;42.058;25.586;2023-03-13T04:52:50;62907.25;;;6.14;76.61
7832;BME280;3961;42.058;25.586;2023-03-13T04:55:16;62855.75;;;5.71;78.67
7832;BME280;3961;42.058;25.586;2023-03-13T04:57:41;62879.88;;;5.92;78.28
7832;BME280;3961;42.058;25.586;2023-03-13T05:00:08;62835.63;;;5.53;79.78
7832;BME280;3961;42.058;25.586;2023-03-13T05:02:34;62826.72;;;5.48;81.06
7832;BME280;3961;42.058;25.586;2023-03-13T05:05:00;62833.13;;;5.49;81.68
7832;BME280;3961;42.058;25.586;2023-03-13T05:07:25;62856.22;;;5.76;81.38
7832;BME280;3961;42.058;25.586;2023-03-13T05:09:51;62856.09;;;5.69;80.93
7832;BME280;3961;42.058;25.586;2023-03-13T05:12:16;62857.72;;;5.75;81.74
7832;BME280;3961;42.058;25.586;2023-03-13T05:14:42;62818.19;;;5.35;84.33
7832;BME280;3961;42.058;25.586;2023-03-13T05:17:07;62826.72;;;5.48;82.55
7832;BME280;3961;42.058;25.586;2023-03-13T05:19:35;62837.28;;;5.59;80.42
7832;BME280;3961;42.058;25.586;2023-03-13T05:22:00;62827.03;;;5.46;80.68
7832;BME280;3961;42.058;25.586;2023-03-13T05:24:27;62844.81;;;5.61;79.33
7832;BME280;3961;42.058;25.586;2023-03-13T05:26:52;62849.09;;;5.67;78.44
7832;BME280;3961;42.058;25.586;2023-03-13T05:29:18;62827.84;;;5.49;79.52
7832;BME280;3961;42.058;25.586;2023-03-13T05:31:43;62848.03;;;5.62;79.31
7832;BME280;3961;42.058;25.586;2023-03-13T05:34:09;62884.47;;;5.96;78.24
7832;BME280;3961;42.058;25.586;2023-03-13T05:36:34;62883.00;;;5.97;78.27
7832;BME280;3961;42.058;25.586;2023-03-13T05:39:00;62889.75;;;5.96;78.08
7832;BME280;3961;42.058;25.586;2023-03-13T05:41:25;62916.31;;;6.27;77.43
7832;BME280;3961;42.058;25.586;2023-03-13T05:43:51;62934.16;;;6.43;76.70
7832;BME280;3961;42.058;25.586;2023-03-13T05:46:16;62913.53;;;6.20;76.96
7832;BME280;3961;42.058;25.586;2023-03-13T05:48:42;62940.81;;;6.46;76.18
7832;BME280;3961;42.058;25.586;2023-03-13T05:51:09;62940.94;;;6.53;76.80
7832;BME280;3961;42.058;25.586;2023-03-13T05:53:35;62959.44;;;6.65;75.62
7832;BME280;3961;42.058;25.586;2023-03-13T05:56:01;62964.38;;;6.67;74.47
7832;BME280;3961;42.058;25.586;2023-03-13T05:58:26;62963.78;;;6.66;73.96
7832;BME280;3961;42.058;25.586;2023-03-13T06:00:51;62964.38;;;6.67;74.98
7832;BME280;3961;42.058;25.586;2023-03-13T06:03:17;62950.81;;;6.57;74.69
7832;BME280;3961;42.058;25.586;2023-03-13T06:05:42;62938.03;;;6.39;74.97
7832;BME280;3961;42.058;25.586;2023-03-13T06:08:08;62946.19;;;6.53;74.13
7832;BME280;3961;42.058;25.586;2023-03-13T06:10:34;62957.22;;;6.58;72.95
7832;BME280;3961;42.058;25.586;2023-03-13T06:12:59;62969.22;;;6.73;71.99
7832;BME280;3961;42.058;25.586;2023-03-13T06:15:25;62975.53;;;6.79;70.25
7832;BME280;3961;42.058;25.586;2023-03-13T06:17:50;62993.03;;;6.97;69.63
7832;BME280;3961;42.058;25.586;2023-03-13T06:20:16;63011.28;;;7.06;68.56
7832;BME280;3961;42.058;25.586;2023-03-13T06:22:41;63029.94;;;7.25;66.38
7832;BME280;3961;42.058;25.586;2023-03-13T06:25:08;63023.03;;;7.19;63.91
7832;BME280;3961;42.058;25.586;2023-03-13T06:27:33;63035.69;;;7.30;62.34
7832;BME280;3961;42.058;25.586;2023-03-13T06:29:59;63046.03;;;7.39;61.35
7832;BME280;3961;42.058;25.586;2023-03-13T06:32:26;63042.94;;;7.34;60.26
7832;BME280;3961;42.058;25.586;2023-03-13T06:34:52;63035.09;;;7.29;61.28
7832;BME280;3961;42.058;25.586;2023-03-13T06:37:17;63060.66;;;7.54;60.37
7832;BME280;3961;42.058;25.586;2023-03-13T06:39:43;63076.53;;;7.66;60.26
7832;BME280;3961;42.058;25.586;2023-03-13T06:42:08;63046.88;;;7.42;60.51
7832;BME280;3961;42.058;25.586;2023-03-13T06:44:34;63072.28;;;7.60;60.49
7832;BME280;3961;42.058;25.586;2023-03-13T06:46:59;63093.81;;;7.81;60.33
7832;BME280;3961;42.058;25.586;2023-03-13T06:49:25;63055.59;;;7.45;59.13
7832;BME280;3961;42.058;25.586;2023-03-13T06:51:50;63099.56;;;7.86;58.15
7832;BME280;3961;42.058;25.586;2023-03-13T06:54:16;63103.25;;;7.92;58.16
7832;BME280;3961;42.058;25.586;2023-03-13T06:56:41;63129.63;;;8.08;57.24
7832;BME280;3961;42.058;25.586;2023-03-13T06:59:07;63113.63;;;8.01;56.54
7832;BME280;3961;42.058;25.586;2023-03-13T07:01:32;63145.06;;;8.26;57.55
7832;BME280;3961;42.058;25.586;2023-03-13T07:03:57;63134.34;;;8.19;57.72
7832;BME280;3961;42.058;25.586;2023-03-13T07:06:23;63160.66;;;8.40;56.60
7832;BME280;3961;42.058;25.586;2023-03-13T07:08:49;63215.94;;;8.89;63.87
7832;BME280;3961;42.058;25.586;2023-03-13T07:11:15;63236.13;;;9.06;54.79
7832;BME280;3961;42.058;25.586;2023-03-13T07:13:40;63226.56;;;9.00;56.38
7832;BME280;3961;42.058;25.586;2023-03-13T07:16:08;63232.44;;;9.01;54.34
7832;BME280;3961;42.058;25.586;2023-03-13T07:18:35;63220.56;;;8.93;55.07
7832;BME280;3961;42.058;25.586;2023-03-13T07:21:02;63237.28;;;9.07;55.13
7832;BME280;3961;42.058;25.586;2023-03-13T07:23:29;63243.03;;;9.13;55.24
7832;BME280;3961;42.058;25.586;2023-03-13T07:25:57;63238.09;;;9.10;54.90
7832;BME280;3961;42.058;25.586;2023-03-13T07:28:24;63281.09;;;9.46;54.98
7832;BME280;3961;42.058;25.586;2023-03-13T07:30:50;63267.03;;;9.31;52.89
7832;BME280;3961;42.058;25.586;2023-03-13T07:33:16;63258.38;;;9.24;52.09
7832;BME280;3961;42.058;25.586;2023-03-13T07:35:51;63267.84;;;9.34;52.05
7832;BME280;3961;42.058;25.586;2023-03-13T07:38:17;63420.81;;;10.69;60.68
7832;BME280;3961;42.058;25.586;2023-03-13T07:41:01;63389.03;;;10.41;49.12
7832;BME280;3961;42.058;25.586;2023-03-13T07:43:27;63378.66;;;10.32;48.87
7832;BME280;3961;42.058;25.586;2023-03-13T07:45:58;63374.84;;;10.31;49.16
7832;BME280;3961;42.058;25.586;2023-03-13T07:48:28;63365.47;;;10.16;48.90
7832;BME280;3961;42.058;25.586;2023-03-13T07:50:54;63354.72;;;10.08;49.32
7832;BME280;3961;42.058;25.586;2023-03-13T07:53:20;63352.44;;;10.06;49.37
7832;BME280;3961;42.058;25.586;2023-03-13T07:55:57;63367.34;;;10.24;49.34
7832;BME280;3961;42.058;25.586;2023-03-13T07:58:24;63365.94;;;10.21;49.93
7832;BME280;3961;42.058;25.586;2023-03-13T08:00:50;63345.97;;;10.05;49.14
7832;BME280;3961;42.058;25.586;2023-03-13T08:03:15;63344.00;;;10.01;49.00
7832;BME280;3961;42.058;25.586;2023-03-13T08:05:41;63396.56;;;10.48;49.31
7832;BME280;3961;42.058;25.586;2023-03-13T08:08:06;63417.00;;;10.68;48.53
7832;BME280;3961;42.058;25.586;2023-03-13T08:10:32;63436.06;;;10.85;47.34
7832;BME280;3961;42.058;25.586;2023-03-13T08:12:57;63485.19;;;11.28;47.12
7832;BME280;3961;42.058;25.586;2023-03-13T08:15:23;63506.91;;;11.44;45.55
7832;BME280;3961;42.058;25.586;2023-03-13T08:17:54;63514.41;;;11.51;45.39
7832;BME280;3961;42.058;25.586;2023-03-13T08:20:20;63526.34;;;11.59;44.29
7832;BME280;3961;42.058;25.586;2023-03-13T08:22:46;63560.13;;;11.91;45.16
7832;BME280;3961;42.058;25.586;2023-03-13T08:25:12;63589.28;;;12.19;44.34
7832;BME280;3961;42.058;25.586;2023-03-13T08:27:38;63631.06;;;12.51;44.01
7832;BME280;3961;42.058;25.586;2023-03-13T08:30:04;63612.19;;;12.37;43.35
7832;BME280;3961;42.058;25.586;2023-03-13T08:32:34;63625.50;;;12.49;41.56
7832;BME280;3961;42.058;25.586;2023-03-13T08:35:00;63749.22;;;13.55;42.55
7832;BME280;3961;42.058;25.586;2023-03-13T08:37:25;63719.91;;;13.31;41.81
7832;BME280;3961;42.058;25.586;2023-03-13T08:39:51;63711.00;;;13.21;39.97
7832;BME280;3961;42.058;25.586;2023-03-13T08:42:18;63716.19;;;13.26;40.06
7832;BME280;3961;42.058;25.586;2023-03-13T08:44:44;63706.09;;;13.15;41.79
7832;BME280;3961;42.058;25.586;2023-03-13T08:47:09;63668.69;;;12.84;40.52
7832;BME280;3961;42.058;25.586;2023-03-13T08:49:35;63666.94;;;12.83;40.82
7832;BME280;3961;42.058;25.586;2023-03-13T08:52:03;63706.34;;;13.17;40.14
7832;BME280;3961;42.058;25.586;2023-03-13T08:54:28;63690.69;;;13.03;38.42
7832;BME280;3961;42.058;25.586;2023-03-13T08:56:54;63657.56;;;12.79;39.55
7832;BME280;3961;42.058;25.586;2023-03-13T08:59:19;63600.28;;;12.29;38.90
7832;BME280;3961;42.058;25.586;2023-03-13T09:01:45;63653.63;;;12.71;38.89
7832;BME280;3961;42.058;25.586;2023-03-13T09:04:10;63706.94;;;13.18;39.60
7832;BME280;3961;42.058;25.586;2023-03-13T09:06:37;63671.25;;;12.89;37.05
7832;BME280;3961;42.058;25.586;2023-03-13T09:09:04;63628.50;;;12.47;37.28
7832;BME280;3961;42.058;25.586;2023-03-13T09:11:30;63619.38;;;12.45;37.12
7832;BME280;3961;42.058;25.586;2023-03-13T09:13:56;63684.53;;;13.00;38.28
7832;BME280;3961;42.058;25.586;2023-03-13T09:16:27;63717.59;;;13.29;36.56
7832;BME280;3961;42.058;25.586;2023-03-13T09:18:53;63719.91;;;13.31;34.08
7832;BME280;3961;42.058;25.586;2023-03-13T09:21:21;63638.25;;;12.60;34.86
7832;BME280;3961;42.058;25.586;2023-03-13T09:23:47;63617.97;;;12.42;36.36
7832;BME280;3961;42.058;25.586;2023-03-13T09:26:13;63641.72;;;12.63;36.56
7832;BME280;3961;42.058;25.586;2023-03-13T09:28:40;63679.00;;;12.98;36.21
7832;BME280;3961;42.058;25.586;2023-03-13T09:31:10;63679.59;;;12.98;34.58
7832;BME280;3961;42.058;25.586;2023-03-13T09:33:36;63636.84;;;12.56;31.97
7832;BME280;3961;42.058;25.586;2023-03-13T09:36:02;63531.53;;;11.64;32.25
7832;BME280;3961;42.058;25.586;2023-03-13T09:38:28;63592.28;;;12.17;32.30
7832;BME280;3961;42.058;25.586;2023-03-13T09:40:54;63584.75;;;12.10;32.04
7832;BME280;3961;42.058;25.586;2023-03-13T09:46:24;63582.00;;;12.15;32.14
7832;BME280;3961;42.058;25.586;2023-03-13T09:49:04;63618.78;;;12.45;31.79
7832;BME280;3961;42.058;25.586;2023-03-13T09:51:38;63622.38;;;12.43;29.31
7832;BME280;3961;42.058;25.586;2023-03-13T09:56:55;63644.97;;;12.63;27.38
7832;BME280;3961;42.058;25.586;2023-03-13T09:59:31;63649.22;;;12.69;29.50
7832;BME280;3961;42.058;25.586;2023-03-13T10:02:03;63744.81;;;13.53;28.21
7832;BME280;3961;42.058;25.586;2023-03-13T10:04:39;63765.44;;;13.69;29.20
7832;BME280;3961;42.058;25.586;2023-03-13T10:07:10;63716.56;;;13.24;29.36
7832;BME280;3961;42.058;25.586;2023-03-13T10:09:37;63713.53;;;13.26;30.87
7832;BME280;3961;42.058;25.586;2023-03-13T10:12:18;63698.78;;;13.10;29.75
7832;BME280;3961;42.058;25.586;2023-03-13T10:17:39;63750.63;;;13.58;29.09
7832;BME280;3961;42.058;25.586;2023-03-13T10:20:24;63726.84;;;13.37;29.66
7832;BME280;3961;42.058;25.586;2023-03-13T10:23:16;63779.00;;;13.83;29.31
7832;BME280;3961;42.058;25.586;2023-03-13T10:25:43;63710.19;;;13.18;29.19
7832;BME280;3961;42.058;25.586;2023-03-13T10:28:11;63680.28;;;12.94;30.28
7832;BME280;3961;42.058;25.586;2023-03-13T10:30:42;63763.94;;;13.70;36.71
7832;BME280;3961;42.058;25.586;2023-03-13T10:35:39;63745.75;;;13.52;29.93
7832;BME280;3961;42.058;25.586;2023-03-13T10:38:18;63673.91;;;12.89;30.92
7832;BME280;3961;42.058;25.586;2023-03-13T10:40:59;63697.88;;;13.12;31.33
7832;BME280;3961;42.058;25.586;2023-03-13T10:43:26;63698.22;;;13.10;31.35
7832;BME280;3961;42.058;25.586;2023-03-13T10:45:52;63614.50;;;12.39;32.34
7832;BME280;3961;42.058;25.586;2023-03-13T10:48:20;63610.81;;;12.33;32.42
7832;BME280;3961;42.058;25.586;2023-03-13T10:50:52;63707.63;;;13.25;31.98
7832;BME280;3961;42.058;25.586;2023-03-13T10:55:54;63797.91;;;13.97;29.69
7832;BME280;3961;42.058;25.586;2023-03-13T10:58:43;63702.28;;;13.13;30.36
7832;BME280;3961;42.058;25.586;2023-03-13T11:01:20;63777.50;;;13.84;29.39
7832;BME280;3961;42.058;25.586;2023-03-13T11:03:47;63709.81;;;13.20;30.78
7832;BME280;3961;42.058;25.586;2023-03-13T11:06:39;63653.84;;;12.73;29.96
7832;BME280;3961;42.058;25.586;2023-03-13T11:09:15;63664.28;;;12.83;30.53
7832;BME280;3961;42.058;25.586;2023-03-13T11:14:19;63663.47;;;12.79;32.00
7832;BME280;3961;42.058;25.586;2023-03-13T11:27:16;63709.47;;;13.22;30.38
7832;BME280;3961;42.058;25.586;2023-03-13T11:29:59;63998.72;;;15.73;31.33
7832;BME280;3961;42.058;25.586;2023-03-13T11:32:42;63828.53;;;14.29;29.47
7832;BME280;3961;42.058;25.586;2023-03-13T11:35:21;63844.88;;;14.38;29.90
7832;BME280;3961;42.058;25.586;2023-03-13T11:37:55;63873.53;;;14.66;29.08
7832;BME280;3961;42.058;25.586;2023-03-13T11:40:27;63926.13;;;15.09;31.10
7832;BME280;3961;42.058;25.586;2023-03-13T11:51:29;63999.06;;;15.71;27.55
7832;BME280;3961;42.058;25.586;2023-03-13T11:54:10;63966.06;;;15.49;27.30
7832;BME280;3961;42.058;25.586;2023-03-13T11:56:57;63860.78;;;14.55;28.39
7832;BME280;3961;42.058;25.586;2023-03-13T12:02:38;63719.34;;;13.31;28.59
7832;BME280;3961;42.058;25.586;2023-03-13T12:05:09;63709.72;;;13.25;29.35
7832;BME280;3961;42.058;25.586;2023-03-13T12:07:41;63726.28;;;13.37;29.36
7832;BME280;3961;42.058;25.586;2023-03-13T12:26:19;63740.19;;;13.49;28.51
7832;BME280;3961;42.058;25.586;2023-03-13T12:29:02;63715.03;;;13.25;29.14
7832;BME280;3961;42.058;25.586;2023-03-13T12:31:41;63887.25;;;14.75;33.80
7832;BME280;3961;42.058;25.586;2023-03-13T12:34:25;63852.53;;;14.40;29.13
7832;BME280;3961;42.058;25.586;2023-03-13T12:40:30;63758.94;;;13.68;28.36
7832;BME280;3961;42.058;25.586;2023-03-13T12:59:03;63752.00;;;13.62;28.61
7832;BME280;3961;42.058;25.586;2023-03-13T13:01:51;63800.09;;;14.04;28.11
7832;BME280;3961;42.058;25.586;2023-03-13T13:04:33;63839.41;;;14.31;27.51
7832;BME280;3961;42.058;25.586;2023-03-13T13:07:38;63893.28;;;14.83;27.25
7832;BME280;3961;42.058;25.586;2023-03-13T13:12:40;64120.81;;;16.79;32.01
7832;BME280;3961;42.058;25.586;2023-03-13T13:20:29;63858.69;;;14.55;28.15
7832;BME280;3961;42.058;25.586;2023-03-13T13:22:55;63900.00;;;14.87;28.48
7832;BME280;3961;42.058;25.586;2023-03-13T13:25:36;63871.22;;;14.64;29.24
7832;BME280;3961;42.058;25.586;2023-03-13T13:30:50;63848.03;;;14.43;31.40
7832;BME280;3961;42.058;25.586;2023-03-13T13:38:38;63716.09;;;13.30;29.24
7832;BME280;3961;42.058;25.586;2023-03-13T13:43:40;63755.03;;;13.60;29.06
7832;BME280;3961;42.058;25.586;2023-03-13T13:51:30;63776.56;;;13.86;27.88
7832;BME280;3961;42.058;25.586;2023-03-13T13:53:58;63821.56;;;14.23;27.80
7832;BME280;3961;42.058;25.586;2023-03-13T14:04:36;63779.34;;;13.81;29.07
7832;BME280;3961;42.058;25.586;2023-03-13T14:07:04;63790.84;;;13.96;28.50
7832;BME280;3961;42.058;25.586;2023-03-13T14:12:36;63853.59;;;14.46;27.87
7832;BME280;3961;42.058;25.586;2023-03-13T14:15:12;63830.03;;;14.28;28.35
7832;BME280;3961;42.058;25.586;2023-03-13T14:17:47;63820.75;;;14.20;28.25
7832;BME280;3961;42.058;25.586;2023-03-13T14:20:27;63884.34;;;14.73;28.24
7832;BME280;3961;42.058;25.586;2023-03-13T14:22:55;63888.41;;;14.76;28.60
7832;BME280;3961;42.058;25.586;2023-03-13T14:25:23;63913.13;;;14.96;28.39
7832;BME280;3961;42.058;25.586;2023-03-13T14:27:50;63958.41;;;15.35;28.23
7832;BME280;3961;42.058;25.586;2023-03-13T14:30:18;63943.75;;;15.27;27.91
7832;BME280;3961;42.058;25.586;2023-03-13T14:32:44;63931.59;;;15.17;28.41
7832;BME280;3961;42.058;25.586;2023-03-13T14:35:14;63933.31;;;15.18;28.26
7832;BME280;3961;42.058;25.586;2023-03-13T14:40:25;63857.06;;;14.49;29.09
7832;BME280;3961;42.058;25.586;2023-03-13T14:42:57;63842.91;;;14.34;29.76
7832;BME280;3961;42.058;25.586;2023-03-13T14:45:40;63793.72;;;13.98;30.00
7832;BME280;3961;42.058;25.586;2023-03-13T14:50:38;63752.69;;;13.58;30.74
7832;BME280;3961;42.058;25.586;2023-03-13T14:53:15;63763.69;;;13.67;30.17
7832;BME280;3961;42.058;25.586;2023-03-13T14:55:42;63804.50;;;14.05;30.34
7832;BME280;3961;42.058;25.586;2023-03-13T14:58:27;63793.84;;;13.94;30.44
7832;BME280;3961;42.058;25.586;2023-03-13T15:00:53;63757.44;;;13.69;30.18
7832;BME280;3961;42.058;25.586;2023-03-13T15:03:21;63785.16;;;13.86;28.87
7832;BME280;3961;42.058;25.586;2023-03-13T15:06:06;63773.56;;;13.76;28.92
7832;BME280;3961;42.058;25.586;2023-03-13T15:09:05;63809.16;;;14.09;30.23
7832;BME280;3961;42.058;25.586;2023-03-13T15:11:27;63874.13;;;14.66;31.49
7832;BME280;3961;42.058;25.586;2023-03-13T15:13:54;63851.28;;;14.44;29.61
7832;BME280;3961;42.058;25.586;2023-03-13T15:16:22;63796.97;;;13.99;30.75
7832;BME280;3961;42.058;25.586;2023-03-13T15:18:49;63752.34;;;13.60;30.80
7832;BME280;3961;42.058;25.586;2023-03-13T15:23:47;63707.06;;;13.25;31.12
7832;BME280;3961;42.058;25.586;2023-03-13T15:26:13;63744.47;;;13.55;31.12
7832;BME280;3961;42.058;25.586;2023-03-13T15:28:39;63756.75;;;13.61;30.71